Portada
METAR-TAF:

METAR-TAF

Aeropuertos :

Aeropuerto Germán Olano

Puerto Carreño, Colombia

latitud: 06-10N, longitud: 067-30W, altitud: 55 m

Observación

El informe se hizo hace 3 horas y 17 minutos, a las 23:00 UTC
Viento 3 kt del suroeste
Temperatura 28°C
Humedad 70%
Presión 1011 hPa
Visibilidad 10 km o más
Nubes dispersas a una altura de 2000 ft

METAR: SKPC 222300Z 23003KT 9999 SCT020 28/22 Q1011

Hora: 21:17 (02:17 UTC)


TAF: falta

Observaciones y pronósticos meteorológicos de más de 4000 aeropuertos (mensajes METAR y TAF).

Los puntos amarillos y rojos representan las estaciones disponibles.

Ponga el ratón en el punto deseado para ver el nombre de la estación.

Haga clic para ver las observaciones y los pronósticos meteorológicos.

Para cambiar el mapa : haga clic en los botones verdes con una cruz de color negro para hacer un zoom, en el botón verde con un guión para alejar o en las flechas verdes para mapas adyacentes.


METAR-TAF: